Snoqualmie River: Middle Fork station

back to: Snoqualmie river
Middle Fork station Summary - (NOAA Hydrograph: TANW1)
Latest reading:
Mon04/22 09:15 am 4.06 ft 1498 cfs (+60/hr)
Past 24hr max:
Sun04/21 09:30 am 4.42 ft 1792 cfs
Forecasted crests: (published Mon 04/22/19 08:52 am)
Mon04/22 11:00 am 4.0 ft 1453 cfs
Tue04/23 05:00 pm 5.8 ft 3268 cfs
Fri04/26 05:00 am 3.94 ft 1404 cfs
Mon04/29 11:00 am 3.45 ft 1077 cfs
Wed05/01 11:00 am 4.38 ft 1761 cfs
Wed05/01 11:00 pm 4.45 ft 1817 cfs

Middle Fork station Details

Latest Readings

Last 100 Readings:
Mon04/22 09:15 am 4.06 ft 1498 cfs
Mon04/22 09:00 am 4.04 ft 1483 cfs
Mon04/22 08:45 am 4.07 ft 1506 cfs
Mon04/22 08:30 am 4.05 ft 1490 cfs
Mon04/22 08:15 am 4.06 ft 1498 cfs
Mon04/22 08:00 am 4.09 ft 1521 cfs
Mon04/22 07:45 am 4.07 ft 1506 cfs
Mon04/22 07:30 am 4.1 ft 1529 cfs
Mon04/22 07:15 am 4.1 ft 1529 cfs
Mon04/22 07:00 am 4.11 ft 1537 cfs
Mon04/22 06:45 am 4.1 ft 1529 cfs
Mon04/22 06:30 am 4.09 ft 1521 cfs
Mon04/22 06:15 am 4.1 ft 1529 cfs
Mon04/22 06:00 am 4.13 ft 1553 cfs
Mon04/22 05:45 am 4.13 ft 1553 cfs
Mon04/22 05:32 am 4.12 ft 1545 cfs
Mon04/22 05:30 am 4.12 ft 1545 cfs
Mon04/22 05:15 am 4.13 ft 1553 cfs
Mon04/22 05:00 am 4.12 ft 1545 cfs
Mon04/22 04:45 am 4.1 ft 1529 cfs
Mon04/22 04:30 am 4.12 ft 1545 cfs
Mon04/22 04:15 am 4.14 ft 1560 cfs
Mon04/22 04:00 am 4.11 ft 1537 cfs
Mon04/22 03:45 am 4.13 ft 1553 cfs
Mon04/22 03:30 am 4.14 ft 1560 cfs
Mon04/22 03:15 am 4.15 ft 1568 cfs
Mon04/22 03:00 am 4.14 ft 1560 cfs
Mon04/22 02:45 am 4.14 ft 1560 cfs
Mon04/22 02:30 am 4.15 ft 1568 cfs
Mon04/22 02:15 am 4.15 ft 1568 cfs
Mon04/22 02:00 am 4.19 ft 1600 cfs
Mon04/22 01:45 am 4.16 ft 1576 cfs
Mon04/22 01:30 am 4.14 ft 1560 cfs
Mon04/22 01:15 am 4.15 ft 1568 cfs
Mon04/22 01:00 am 4.18 ft 1592 cfs
Mon04/22 12:45 am 4.16 ft 1576 cfs
Mon04/22 12:30 am 4.18 ft 1592 cfs
Mon04/22 12:15 am 4.15 ft 1568 cfs
Mon04/22 12:00 am 4.17 ft 1584 cfs
Sun04/21 11:45 pm 4.15 ft 1568 cfs
Sun04/21 11:30 pm 4.19 ft 1600 cfs
Sun04/21 11:15 pm 4.13 ft 1553 cfs
Sun04/21 11:00 pm 4.17 ft 1584 cfs
Sun04/21 10:45 pm 4.14 ft 1560 cfs
Sun04/21 10:30 pm 4.14 ft 1560 cfs
Sun04/21 10:15 pm 4.16 ft 1576 cfs
Sun04/21 10:00 pm 4.18 ft 1592 cfs
Sun04/21 09:45 pm 4.14 ft 1560 cfs
Sun04/21 09:30 pm 4.16 ft 1576 cfs
Sun04/21 09:15 pm 4.16 ft 1576 cfs
Sun04/21 09:00 pm 4.21 ft 1616 cfs
Sun04/21 08:45 pm 4.16 ft 1576 cfs
Sun04/21 08:30 pm 4.17 ft 1584 cfs
Sun04/21 08:15 pm 4.19 ft 1600 cfs
Sun04/21 08:00 pm 4.16 ft 1576 cfs
Sun04/21 07:45 pm 4.19 ft 1600 cfs
Sun04/21 07:30 pm 4.19 ft 1600 cfs
Sun04/21 07:15 pm 4.21 ft 1616 cfs
Sun04/21 07:00 pm 4.24 ft 1641 cfs
Sun04/21 06:45 pm 4.19 ft 1600 cfs
Sun04/21 06:30 pm 4.23 ft 1633 cfs
Sun04/21 06:15 pm 4.21 ft 1616 cfs
Sun04/21 06:00 pm 4.2 ft 1608 cfs
Sun04/21 05:45 pm 4.2 ft 1608 cfs
Sun04/21 05:30 pm 4.2 ft 1608 cfs
Sun04/21 05:15 pm 4.22 ft 1625 cfs
Sun04/21 05:00 pm 4.21 ft 1616 cfs
Sun04/21 04:45 pm 4.23 ft 1633 cfs
Sun04/21 04:30 pm 4.22 ft 1625 cfs
Sun04/21 04:15 pm 4.26 ft 1657 cfs
Sun04/21 04:00 pm 4.25 ft 1649 cfs
Sun04/21 03:45 pm 4.25 ft 1649 cfs
Sun04/21 03:30 pm 4.25 ft 1649 cfs
Sun04/21 03:15 pm 4.24 ft 1641 cfs
Sun04/21 03:00 pm 4.27 ft 1666 cfs
Sun04/21 02:45 pm 4.27 ft 1666 cfs
Sun04/21 02:30 pm 4.27 ft 1666 cfs
Sun04/21 02:15 pm 4.28 ft 1674 cfs
Sun04/21 02:00 pm 4.3 ft 1690 cfs
Sun04/21 01:45 pm 4.3 ft 1690 cfs
Sun04/21 01:30 pm 4.31 ft 1699 cfs
Sun04/21 01:15 pm 4.3 ft 1690 cfs
Sun04/21 01:00 pm 4.32 ft 1707 cfs
Sun04/21 12:45 pm 4.32 ft 1707 cfs
Sun04/21 12:30 pm 4.34 ft 1724 cfs
Sun04/21 12:15 pm 4.37 ft 1749 cfs
Sun04/21 12:00 pm 4.36 ft 1741 cfs
Sun04/21 11:45 am 4.39 ft 1767 cfs
Sun04/21 11:30 am 4.38 ft 1758 cfs
Sun04/21 11:15 am 4.4 ft 1775 cfs
Sun04/21 11:00 am 4.34 ft 1724 cfs
Sun04/21 10:45 am 4.41 ft 1784 cfs
Sun04/21 10:30 am 4.41 ft 1784 cfs
Sun04/21 10:15 am 4.41 ft 1784 cfs
Sun04/21 10:00 am 4.4 ft 1775 cfs
Sun04/21 09:45 am 4.42 ft 1792 cfs
Sun04/21 09:30 am 4.42 ft 1792 cfs
Sun04/21 09:15 am 4.41 ft 1784 cfs
Sun04/21 09:00 am 4.44 ft 1810 cfs
Sun04/21 08:45 am 4.42 ft 1792 cfs

Latest Forecasts

Currently Forecasted Readings:
Mon04/22 11:00 am 4.0 ft 1453 cfs
Mon04/22 05:00 pm 3.93 ft 1399 cfs
Mon04/22 11:00 pm 4.47 ft 1836 cfs
Tue04/23 05:00 am 5.21 ft 2560 cfs
Tue04/23 11:00 am 5.75 ft 3197 cfs
Tue04/23 05:00 pm 5.8 ft 3268 cfs
Tue04/23 11:00 pm 5.57 ft 2980 cfs
Wed04/24 05:00 am 5.25 ft 2610 cfs
Wed04/24 11:00 am 4.89 ft 2230 cfs
Wed04/24 05:00 pm 4.54 ft 1900 cfs
Wed04/24 11:00 pm 4.32 ft 1703 cfs
Thu04/25 05:00 am 4.17 ft 1584 cfs
Thu04/25 11:00 am 3.98 ft 1438 cfs
Thu04/25 05:00 pm 3.83 ft 1327 cfs
Thu04/25 11:00 pm 3.83 ft 1325 cfs
Fri04/26 05:00 am 3.94 ft 1404 cfs
Fri04/26 11:00 am 3.9 ft 1377 cfs
Fri04/26 05:00 pm 3.75 ft 1271 cfs
Fri04/26 11:00 pm 3.68 ft 1226 cfs
Sat04/27 05:00 am 3.65 ft 1207 cfs
Sat04/27 11:00 am 3.57 ft 1149 cfs
Sat04/27 05:00 pm 3.42 ft 1055 cfs
Sat04/27 11:00 pm 3.34 ft 1006 cfs
Sun04/28 05:00 am 3.31 ft 989 cfs
Sun04/28 11:00 am 3.22 ft 936 cfs
Sun04/28 05:00 pm 3.03 ft 837 cfs
Sun04/28 11:00 pm 3.11 ft 876 cfs
Mon04/29 05:00 am 3.34 ft 1008 cfs
Mon04/29 11:00 am 3.45 ft 1077 cfs
Mon04/29 05:00 pm 3.35 ft 1015 cfs
Mon04/29 11:00 pm 3.29 ft 980 cfs
Tue04/30 05:00 am 3.29 ft 979 cfs
Tue04/30 11:00 am 3.23 ft 944 cfs
Tue04/30 05:00 pm 3.21 ft 935 cfs
Tue04/30 11:00 pm 3.67 ft 1219 cfs
Wed05/01 05:00 am 4.26 ft 1656 cfs
Wed05/01 11:00 am 4.38 ft 1761 cfs
Wed05/01 05:00 pm 4.29 ft 1680 cfs
Wed05/01 11:00 pm 4.45 ft 1817 cfs
Thu05/02 05:00 am 4.43 ft 1798 cfs

Snoqualmie River flood gauge data supplied by the
National Weather Service Northwest River Forecast Center.

Sign up for Floodzilla alerts.